Time;durP1;ratioP1;P1;durP2;ratioP2;P2;SDS_P1;SDS_P2;PMS_P1;PMS_P2;Temp;Humidity;BMP_temperature;BMP_pressure;BME280_temperature;BME280_humidity;BME280_pressure;Samples;Min_cycle;Max_cycle;Signal;HPM_P1;HPM_P2
2023/08/07 00:02:04;;;;;;;3.45;1.10;;;;;;;12.92;100.00;101144.53;5029601;28;20041;-81
2023/08/07 00:04:30;;;;;;;8.65;1.20;;;;;;;12.89;100.00;101147.47;5030188;28;20132;-81
2023/08/07 00:06:55;;;;;;;2.40;0.90;;;;;;;12.86;100.00;101145.97;5041011;28;20398;-81
2023/08/07 00:09:21;;;;;;;5.22;1.80;;;;;;;12.84;100.00;101142.59;5013813;28;20037;-80
2023/08/07 00:11:47;;;;;;;7.88;1.83;;;;;;;12.83;100.00;101140.09;5049754;28;20391;-81
2023/08/07 00:14:13;;;;;;;4.88;1.48;;;;;;;12.81;100.00;101136.75;5031864;28;20116;-81
2023/08/07 00:16:39;;;;;;;4.13;1.48;;;;;;;12.81;100.00;101142.03;5002198;28;20134;-81
2023/08/07 00:19:05;;;;;;;4.47;1.33;;;;;;;12.83;100.00;101137.44;5019111;28;20136;-81
2023/08/07 00:21:30;;;;;;;4.47;1.10;;;;;;;12.83;100.00;101132.13;5030734;28;20900;-81
2023/08/07 00:23:56;;;;;;;5.57;1.17;;;;;;;12.83;100.00;101134.78;5017447;28;20497;-81
2023/08/07 00:26:22;;;;;;;2.80;0.90;;;;;;;12.83;100.00;101134.78;5047975;28;20475;-81
2023/08/07 00:28:48;;;;;;;6.63;1.10;;;;;;;12.75;100.00;101125.75;5052356;28;20033;-81
2023/08/07 00:31:14;;;;;;;3.90;1.00;;;;;;;12.68;100.00;101123.78;5008545;28;20037;-81
2023/08/07 00:33:39;;;;;;;4.28;0.85;;;;;;;12.58;100.00;101127.25;5044086;28;20686;-79
2023/08/07 00:36:05;;;;;;;3.25;0.70;;;;;;;12.46;100.00;101123.94;5049106;28;20033;-79
2023/08/07 00:38:31;;;;;;;4.95;0.73;;;;;;;12.40;100.00;101122.69;5051499;28;20039;-81
2023/08/07 00:40:57;;;;;;;3.08;0.57;;;;;;;12.36;100.00;101120.47;5014557;28;20035;-81
2023/08/07 00:43:23;;;;;;;0.90;0.40;;;;;;;12.34;100.00;101125.06;5050900;28;20043;-81
2023/08/07 00:45:49;;;;;;;3.45;0.63;;;;;;;12.28;100.00;101121.97;5020810;28;20498;-81
2023/08/07 00:48:17;;;;;;;4.00;0.70;;;;;;;12.22;100.00;101117.22;5043997;28;20036;-81
2023/08/07 00:50:45;;;;;;;2.70;0.70;;;;;;;12.19;100.00;101125.47;5049449;28;20028;-81
2023/08/07 00:53:11;;;;;;;4.10;0.77;;;;;;;12.15;100.00;101118.78;5051113;28;20031;-81
2023/08/07 00:55:37;;;;;;;3.05;0.63;;;;;;;12.15;100.00;101119.59;5052688;28;20028;-80
2023/08/07 00:58:03;;;;;;;3.47;0.75;;;;;;;12.09;100.00;101114.03;5039295;28;20037;-81
2023/08/07 01:00:30;;;;;;;4.90;0.80;;;;;;;12.07;100.00;101111.44;5039848;28;20045;-81
2023/08/07 01:02:56;;;;;;;5.78;1.00;;;;;;;12.06;100.00;101108.94;5013413;28;20437;-80
2023/08/07 01:05:25;;;;;;;2.30;0.68;;;;;;;12.01;100.00;101112.00;5045191;28;20127;-81
2023/08/07 01:07:54;;;;;;;3.22;0.45;;;;;;;11.93;100.00;101106.56;5031182;28;20382;-81
2023/08/07 01:10:35;;;;;;;2.53;1.17;;;;;;;11.83;100.00;101104.75;5059415;28;20032;-80
2023/08/07 01:13:14;;;;;;;3.13;0.70;;;;;;;11.75;100.00;101112.53;5062518;28;20037;-81
2023/08/07 01:15:39;;;;;;;7.15;1.27;;;;;;;11.70;100.00;101106.78;5047400;28;20037;-81
2023/08/07 01:18:07;;;;;;;11.73;2.45;;;;;;;11.69;100.00;101097.19;5036925;28;20107;-81
2023/08/07 01:20:34;;;;;;;3.55;1.33;;;;;;;11.68;100.00;101104.28;5018769;28;20415;-81
2023/08/07 01:23:00;;;;;;;4.32;1.33;;;;;;;11.71;100.00;101092.56;5029403;28;20034;-81
2023/08/07 01:25:26;;;;;;;3.10;1.05;;;;;;;11.72;100.00;101096.91;5024278;28;20025;-80
2023/08/07 01:28:05;;;;;;;5.05;1.80;;;;;;;11.68;100.00;101099.00;5027937;28;20029;-80
2023/08/07 01:30:37;;;;;;;6.07;1.50;;;;;;;11.66;100.00;101096.47;5032444;28;20033;-80
2023/08/07 01:33:15;;;;;;;4.80;1.35;;;;;;;11.64;100.00;101082.53;5045275;28;20033;-80
2023/08/07 01:35:46;;;;;;;4.78;1.23;;;;;;;11.64;100.00;101092.31;5047926;28;20040;-80
2023/08/07 01:38:13;;;;;;;3.63;1.10;;;;;;;11.66;100.00;101095.63;5042881;28;20033;-80
2023/08/07 01:40:40;;;;;;;3.22;1.13;;;;;;;11.65;100.00;101086.88;5030161;28;20051;-81
2023/08/07 01:43:06;;;;;;;3.13;1.02;;;;;;;11.63;100.00;101094.09;5029896;28;20092;-80
2023/08/07 01:45:33;;;;;;;5.00;1.02;;;;;;;11.61;100.00;101089.91;5033105;28;20037;-80
2023/08/07 01:47:59;;;;;;;1.70;0.50;;;;;;;11.57;100.00;101097.28;5042270;28;20037;-79
2023/08/07 01:50:25;;;;;;;7.93;0.90;;;;;;;11.46;100.00;101098.22;5029063;28;20028;-79
2023/08/07 01:52:52;;;;;;;1.48;1.17;;;;;;;11.31;100.00;101094.28;5047072;28;20441;-80
2023/08/07 01:55:19;;;;;;;2.95;1.00;;;;;;;11.13;100.00;101093.06;5031152;28;20045;-81
2023/08/07 01:57:54;;;;;;;2.60;0.80;;;;;;;10.92;100.00;101101.88;5047100;28;20047;-80
2023/08/07 02:00:20;;;;;;;3.10;0.93;;;;;;;10.76;100.00;101106.78;5011356;28;20033;-80
2023/08/07 02:02:46;;;;;;;4.50;0.88;;;;;;;10.67;100.00;101098.66;5037176;28;20025;-80
2023/08/07 02:05:13;;;;;;;3.10;0.70;;;;;;;10.68;100.00;101094.22;5019693;28;20056;-80
2023/08/07 02:07:40;;;;;;;7.57;1.10;;;;;;;10.72;100.00;101092.16;5032961;28;20037;-80
2023/08/07 02:10:06;;;;;;;7.10;0.98;;;;;;;10.72;100.00;101090.34;5012226;28;20044;-80
2023/08/07 02:12:32;;;;;;;4.25;0.95;;;;;;;10.81;100.00;101098.47;5008006;28;20025;-81
2023/08/07 02:14:59;;;;;;;4.35;0.90;;;;;;;10.83;100.00;101093.91;5049511;28;20063;-81
2023/08/07 02:17:27;;;;;;;1.90;0.80;;;;;;;10.88;100.00;101100.47;5031250;28;20036;-80
2023/08/07 02:19:53;;;;;;;2.13;0.77;;;;;;;10.83;100.00;101097.34;5018833;28;20036;-81
2023/08/07 02:22:19;;;;;;;4.30;0.80;;;;;;;10.82;100.00;101093.06;5032237;28;20498;-81
2023/08/07 02:24:45;;;;;;;6.63;1.42;;;;;;;10.88;100.00;101096.97;5063364;28;20386;-80
2023/08/07 02:27:11;;;;;;;7.45;1.00;;;;;;;10.90;100.00;101097.69;5029338;28;20107;-81
2023/08/07 02:29:37;;;;;;;1.10;0.50;;;;;;;10.94;100.00;101090.34;5041436;28;20037;-80
2023/08/07 02:32:03;;;;;;;1.63;0.65;;;;;;;10.98;100.00;101089.94;5045049;28;20397;-80
2023/08/07 02:34:30;;;;;;;2.72;0.82;;;;;;;11.02;100.00;101086.06;5019860;28;20102;-81
2023/08/07 02:36:58;;;;;;;5.30;0.75;;;;;;;11.04;100.00;101086.78;5021912;28;20044;-81
2023/08/07 02:39:24;;;;;;;3.30;1.20;;;;;;;11.09;100.00;101085.53;5030443;28;20041;-80
2023/08/07 02:41:50;;;;;;;5.55;1.70;;;;;;;11.12;100.00;101075.53;5051854;28;20453;-80
2023/08/07 02:44:17;;;;;;;8.02;1.35;;;;;;;11.16;100.00;101071.63;5031426;28;20040;-80
2023/08/07 02:46:43;;;;;;;4.57;1.15;;;;;;;11.22;100.00;101066.78;5033478;28;20494;-81
2023/08/07 02:49:09;;;;;;;3.22;0.70;;;;;;;11.26;100.00;101062.94;5063375;28;20044;-80
2023/08/07 02:51:35;;;;;;;5.40;0.70;;;;;;;11.29;100.00;101057.38;5068794;28;20124;-80
2023/08/07 02:54:01;;;;;;;8.23;1.40;;;;;;;11.34;100.00;101056.97;5047251;28;20116;-80
2023/08/07 02:56:27;;;;;;;7.13;1.10;;;;;;;11.35;100.00;101066.56;5046812;28;20079;-80
2023/08/07 02:58:52;;;;;;;4.43;0.70;;;;;;;11.37;100.00;101054.03;5052671;28;20029;-80
2023/08/07 03:01:20;;;;;;;7.45;1.23;;;;;;;11.41;100.00;101063.38;5044291;28;20052;-80
2023/08/07 03:03:45;;;;;;;4.38;0.82;;;;;;;11.41;100.00;101061.56;5051663;28;20036;-80
2023/08/07 03:06:11;;;;;;;2.60;0.57;;;;;;;11.39;100.00;101066.16;5060735;28;20502;-80
2023/08/07 03:08:37;;;;;;;3.67;0.90;;;;;;;11.41;100.00;101066.88;5058560;28;20028;-80
2023/08/07 03:11:03;;;;;;;2.70;0.80;;;;;;;11.40;100.00;101065.19;5036117;28;20111;-81
2023/08/07 03:13:29;;;;;;;4.60;1.17;;;;;;;11.46;100.00;101058.53;5032093;28;20036;-79
2023/08/07 03:16:02;;;;;;;5.47;1.10;;;;;;;11.52;100.00;101050.03;5050034;28;20372;-79
2023/08/07 03:18:29;;;;;;;4.22;0.73;;;;;;;11.52;100.00;101042.09;5033922;28;20820;-80
2023/08/07 03:20:55;;;;;;;5.28;1.23;;;;;;;11.52;100.00;101044.75;5009521;28;20033;-80
2023/08/07 03:23:25;;;;;;;5.43;0.90;;;;;;;11.53;100.00;101038.47;5038550;28;20067;-80
2023/08/07 03:26:05;;;;;;;6.07;1.00;;;;;;;11.56;100.00;101034.72;4988047;28;20029;-81
2023/08/07 03:28:31;;;;;;;8.70;0.80;;;;;;;11.51;100.00;101039.59;5040526;28;20029;-80
2023/08/07 03:30:57;;;;;;;2.67;0.77;;;;;;;11.47;100.00;101039.00;5014888;28;20071;-80
2023/08/07 03:33:23;;;;;;;3.40;1.15;;;;;;;11.51;100.00;101044.88;5050086;28;20050;-79
2023/08/07 03:35:50;;;;;;;3.08;0.90;;;;;;;11.52;100.00;101035.97;5013087;28;20075;-79
2023/08/07 03:38:16;;;;;;;2.65;0.80;;;;;;;11.48;100.00;101043.31;5044002;28;20486;-80
2023/08/07 03:40:41;;;;;;;3.53;0.90;;;;;;;11.48;100.00;101042.50;5030961;28;20086;-80
2023/08/07 03:43:08;;;;;;;3.72;0.60;;;;;;;11.46;100.00;101032.06;5032548;28;20035;-80
2023/08/07 03:45:35;;;;;;;2.97;0.80;;;;;;;11.46;100.00;101042.66;5049252;28;20032;-80
2023/08/07 03:48:00;;;;;;;2.55;0.90;;;;;;;11.37;100.00;101038.16;5031622;28;20029;-81
2023/08/07 03:50:26;;;;;;;5.35;0.70;;;;;;;11.27;100.00;101040.78;5046825;28;20036;-81
2023/08/07 03:52:52;;;;;;;7.25;1.08;;;;;;;11.22;100.00;101032.38;5036092;28;20593;-81
2023/08/07 03:55:19;;;;;;;8.05;1.20;;;;;;;11.19;100.00;101035.31;5053857;28;20037;-81
2023/08/07 03:57:45;;;;;;;7.38;1.45;;;;;;;11.15;100.00;101040.88;5053837;28;20036;-80
2023/08/07 04:00:13;;;;;;;3.72;0.95;;;;;;;11.19;100.00;101038.78;5054136;28;20037;-81
2023/08/07 04:02:41;;;;;;;4.78;1.20;;;;;;;11.23;100.00;101032.25;5052803;28;20041;-81
2023/08/07 04:05:10;;;;;;;9.52;1.15;;;;;;;11.27;100.00;101028.38;5054449;28;20111;-80
2023/08/07 04:07:37;;;;;;;2.65;0.90;;;;;;;11.33;100.00;101018.22;5017192;28;20479;-80
2023/08/07 04:10:04;;;;;;;2.67;0.80;;;;;;;11.37;100.00;101020.44;5059734;28;20120;-81
2023/08/07 04:12:30;;;;;;;5.57;0.90;;;;;;;11.43;100.00;101024.38;5045381;28;20055;-81
2023/08/07 04:14:55;;;;;;;1.83;0.65;;;;;;;11.47;100.00;101023.13;5023640;28;20033;-80
2023/08/07 04:17:21;;;;;;;4.53;0.93;;;;;;;11.51;100.00;101026.34;5060145;28;20035;-80
2023/08/07 04:19:47;;;;;;;3.38;0.70;;;;;;;11.53;100.00;101025.22;5037703;28;20033;-80
2023/08/07 04:22:13;;;;;;;3.70;0.88;;;;;;;11.53;100.00;101022.59;5048675;28;20601;-80
2023/08/07 04:24:39;;;;;;;2.80;0.43;;;;;;;11.57;100.00;101020.50;5023775;28;20041;-80
2023/08/07 04:27:05;;;;;;;5.95;1.02;;;;;;;11.59;100.00;101023.88;5048571;28;20506;-80
2023/08/07 04:29:31;;;;;;;4.43;0.80;;;;;;;11.59;100.00;101012.44;5050601;28;20037;-80
2023/08/07 04:31:57;;;;;;;5.75;0.70;;;;;;;11.60;100.00;101012.28;5050735;28;20035;-80
2023/08/07 04:34:23;;;;;;;3.53;0.93;;;;;;;11.63;100.00;101011.16;5051829;28;20028;-80
2023/08/07 04:36:51;;;;;;;2.80;1.02;;;;;;;11.66;100.00;101018.84;5034583;28;20410;-81
2023/08/07 04:39:18;;;;;;;5.07;1.15;;;;;;;11.68;100.00;101008.09;5037086;28;20571;-80
2023/08/07 04:41:44;;;;;;;2.97;0.70;;;;;;;11.68;100.00;101014.25;5032928;28;20041;-80
2023/08/07 04:44:10;;;;;;;3.03;0.80;;;;;;;11.68;100.00;101011.59;5044997;28;20033;-80
2023/08/07 04:46:35;;;;;;;5.63;0.80;;;;;;;11.70;100.00;101011.47;5021720;28;20044;-81
2023/08/07 04:49:01;;;;;;;2.97;1.02;;;;;;;11.68;100.00;101008.94;5035902;28;20028;-81
2023/08/07 04:51:28;;;;;;;5.47;1.00;;;;;;;11.65;100.00;101010.06;5048189;28;20518;-80
2023/08/07 04:53:56;;;;;;;6.75;0.90;;;;;;;11.68;100.00;101010.75;5036178;28;20040;-80
2023/08/07 04:56:22;;;;;;;2.28;1.10;;;;;;;11.67;100.00;101009.94;5065958;28;20037;-81
2023/08/07 04:58:48;;;;;;;5.18;1.27;;;;;;;11.67;100.00;101015.22;5034138;28;20491;-80
2023/08/07 05:01:14;;;;;;;3.60;1.10;;;;;;;11.64;100.00;101018.16;5035631;28;20025;-80
2023/08/07 05:03:39;;;;;;;3.72;1.25;;;;;;;11.61;100.00;101027.19;5053652;28;20464;-80
2023/08/07 05:06:05;;;;;;;2.25;0.88;;;;;;;11.60;100.00;101029.97;5020196;28;20044;-80
2023/08/07 05:08:31;;;;;;;3.03;1.00;;;;;;;11.63;100.00;101040.28;5050816;28;20025;-79
2023/08/07 05:10:57;;;;;;;3.15;0.98;;;;;;;11.54;100.00;101031.38;5050981;28;20112;-79
2023/08/07 05:13:23;;;;;;;2.58;0.75;;;;;;;11.52;100.00;101042.09;5053185;28;20112;-79
2023/08/07 05:15:49;;;;;;;3.70;0.70;;;;;;;11.53;100.00;101033.16;5031873;28;20036;-79
2023/08/07 05:18:15;;;;;;;3.00;1.10;;;;;;;11.57;100.00;101036.41;5016703;28;20052;-79
2023/08/07 05:20:42;;;;;;;4.20;0.90;;;;;;;11.61;100.00;101031.66;5049097;28;20161;-79
2023/08/07 05:23:08;;;;;;;7.78;1.42;;;;;;;11.64;100.00;101024.28;5053815;28;20058;-79
2023/08/07 05:25:34;;;;;;;7.72;1.02;;;;;;;11.70;100.00;101016.75;5051129;28;20048;-79
2023/08/07 05:28:00;;;;;;;1.77;0.45;;;;;;;11.79;100.00;101023.88;5042603;28;20033;-79
2023/08/07 05:30:26;;;;;;;1.98;0.50;;;;;;;11.86;100.00;101026.81;5032641;28;20121;-79
2023/08/07 05:32:51;;;;;;;3.03;0.80;;;;;;;11.89;100.00;101029.19;5035997;28;20067;-79
2023/08/07 05:35:17;;;;;;;2.58;0.70;;;;;;;11.93;100.00;101030.56;5069072;28;20067;-79
2023/08/07 05:37:43;;;;;;;3.60;1.00;;;;;;;11.94;100.00;101032.25;5069338;28;20040;-79
2023/08/07 05:40:11;;;;;;;4.18;0.60;;;;;;;11.98;100.00;101025.69;5034540;28;20085;-79
2023/08/07 05:42:37;;;;;;;3.90;1.27;;;;;;;12.00;100.00;101005.22;5052173;28;20087;-79
2023/08/07 05:45:04;;;;;;;2.03;0.60;;;;;;;11.91;100.00;101006.06;5035023;28;20038;-79
2023/08/07 05:47:32;;;;;;;4.90;0.60;;;;;;;11.90;100.00;101007.00;5029371;28;20029;-79
2023/08/07 05:49:58;;;;;;;1.20;0.50;;;;;;;11.94;100.00;101008.44;5044618;28;20107;-79
2023/08/07 05:52:24;;;;;;;3.70;0.70;;;;;;;12.02;100.00;101003.25;5055367;28;20408;-79
2023/08/07 05:54:50;;;;;;;3.17;0.80;;;;;;;12.03;100.00;100996.97;5067629;28;20374;-79
2023/08/07 05:57:17;;;;;;;2.20;0.50;;;;;;;12.06;100.00;101008.25;5051737;28;20035;-79
2023/08/07 05:59:43;;;;;;;5.20;1.15;;;;;;;12.09;100.00;101005.38;5050068;28;20079;-79
2023/08/07 06:02:10;;;;;;;5.82;1.38;;;;;;;12.09;100.00;101000.09;5022728;28;20064;-79
2023/08/07 06:04:36;;;;;;;2.00;0.90;;;;;;;12.08;100.00;100991.28;5032344;28;20409;-79
2023/08/07 06:07:02;;;;;;;4.20;1.33;;;;;;;12.08;100.00;100990.44;5070050;28;20024;-79
2023/08/07 06:09:28;;;;;;;6.88;1.20;;;;;;;12.06;100.00;101000.31;5061090;28;20504;-79
2023/08/07 06:11:54;;;;;;;3.33;0.90;;;;;;;12.04;100.00;101001.28;5064694;28;20043;-79
2023/08/07 06:14:19;;;;;;;2.03;1.10;;;;;;;12.08;100.00;100996.59;5037606;28;20104;-79
2023/08/07 06:16:45;;;;;;;3.42;0.75;;;;;;;12.14;100.00;101001.31;5029264;28;20403;-79
2023/08/07 06:19:11;;;;;;;7.85;1.02;;;;;;;12.21;100.00;101000.75;5061566;28;20044;-79
2023/08/07 06:21:37;;;;;;;3.92;0.82;;;;;;;12.25;100.00;101002.13;5047884;28;20394;-79
2023/08/07 06:24:03;;;;;;;5.07;1.10;;;;;;;12.28;100.00;100993.91;5058676;28;20024;-79
2023/08/07 06:26:28;;;;;;;3.75;1.02;;;;;;;12.36;100.00;100993.22;5047589;28;20650;-79
2023/08/07 06:28:54;;;;;;;3.50;0.98;;;;;;;12.35;100.00;100989.72;5031397;28;20033;-79
2023/08/07 06:31:20;;;;;;;1.52;0.98;;;;;;;12.38;100.00;100988.59;5039563;28;20032;-79
2023/08/07 06:33:46;;;;;;;6.65;1.10;;;;;;;12.39;100.00;100992.94;5028056;28;20064;-79
2023/08/07 06:36:11;;;;;;;1.98;0.63;;;;;;;12.44;100.00;100990.66;5050540;28;20036;-79
2023/08/07 06:38:37;;;;;;;4.28;1.25;;;;;;;12.51;100.00;100999.75;5067106;28;20376;-79
2023/08/07 06:41:05;;;;;;;3.88;0.95;;;;;;;12.55;100.00;101002.91;5046503;28;20086;-78
2023/08/07 06:43:31;;;;;;;2.65;0.98;;;;;;;12.48;100.00;101005.31;5035401;28;20029;-79
2023/08/07 06:45:57;;;;;;;3.55;1.20;;;;;;;12.40;100.00;101000.75;5030235;28;20399;-79
2023/08/07 06:48:23;;;;;;;1.95;1.00;;;;;;;12.32;100.00;101015.66;5037626;28;20386;-79
2023/08/07 06:50:50;;;;;;;5.75;1.30;;;;;;;12.22;100.00;101008.56;5047725;28;20787;-79
2023/08/07 06:53:16;;;;;;;6.93;1.60;;;;;;;12.21;100.00;101012.22;5068952;28;20506;-79
2023/08/07 06:55:42;;;;;;;5.95;1.65;;;;;;;12.24;100.00;101011.91;5032269;28;20044;-79
2023/08/07 06:58:09;;;;;;;3.10;1.80;;;;;;;12.30;100.00;101012.31;5044854;28;20090;-79
2023/08/07 07:00:36;;;;;;;3.40;1.23;;;;;;;12.31;100.00;101006.88;5045917;28;20036;-79
2023/08/07 07:03:03;;;;;;;5.35;1.60;;;;;;;12.37;100.00;101008.13;5044132;28;20650;-79
2023/08/07 07:05:30;;;;;;;4.00;1.45;;;;;;;12.42;100.00;101013.00;5028548;28;20128;-79
2023/08/07 07:07:56;;;;;;;7.28;1.55;;;;;;;12.50;100.00;101013.13;5030805;28;20052;-79
2023/08/07 07:10:22;;;;;;;4.25;1.15;;;;;;;12.56;100.00;101020.53;5027440;28;20479;-79
2023/08/07 07:12:51;;;;;;;4.75;1.27;;;;;;;12.64;100.00;101014.50;5067030;28;20116;-79
2023/08/07 07:15:17;;;;;;;7.88;1.23;;;;;;;12.67;100.00;101013.38;5062941;28;20023;-78
2023/08/07 07:17:43;;;;;;;3.80;1.13;;;;;;;12.72;100.00;101014.63;5045521;28;20103;-78
2023/08/07 07:20:11;;;;;;;4.05;1.38;;;;;;;12.80;100.00;101002.44;5010719;28;20037;-79
2023/08/07 07:22:36;;;;;;;7.28;1.75;;;;;;;12.90;100.00;101005.88;5046846;28;20037;-79
2023/08/07 07:25:04;;;;;;;3.78;1.20;;;;;;;13.01;100.00;101002.22;5050719;28;20402;-79
2023/08/07 07:27:30;;;;;;;4.05;1.27;;;;;;;13.06;100.00;100989.31;5046708;28;20032;-79
2023/08/07 07:29:56;;;;;;;4.15;0.93;;;;;;;13.10;100.00;100993.38;5046046;28;20033;-79
2023/08/07 07:32:21;;;;;;;3.38;1.00;;;;;;;13.19;100.00;100991.63;5046516;28;20026;-79
2023/08/07 07:34:47;;;;;;;4.30;0.98;;;;;;;13.38;100.00;100998.66;5040422;28;20037;-79
2023/08/07 07:37:14;;;;;;;4.72;1.10;;;;;;;13.51;100.00;100994.84;5041255;28;20029;-79
2023/08/07 07:39:39;;;;;;;5.30;0.93;;;;;;;13.63;100.00;100987.50;5048352;28;20114;-79
2023/08/07 07:42:07;;;;;;;1.65;0.98;;;;;;;13.81;100.00;100986.66;5046033;28;20497;-79
2023/08/07 07:44:35;;;;;;;2.45;0.80;;;;;;;13.89;100.00;100992.03;5030390;28;20038;-79
2023/08/07 07:47:01;;;;;;;6.68;1.05;;;;;;;13.90;100.00;100991.06;5044125;28;20072;-79
2023/08/07 07:49:26;;;;;;;3.45;1.60;;;;;;;13.89;100.00;101002.66;5034832;28;20057;-79
2023/08/07 07:51:52;;;;;;;5.75;1.00;;;;;;;13.89;100.00;101000.84;5031669;28;20030;-79
2023/08/07 07:54:18;;;;;;;4.95;0.80;;;;;;;13.88;100.00;101003.66;5027026;28;20033;-79
2023/08/07 07:56:44;;;;;;;4.15;0.80;;;;;;;13.88;100.00;101009.81;5044110;28;20120;-79
2023/08/07 07:59:10;;;;;;;3.75;1.10;;;;;;;13.88;100.00;101001.00;5048560;28;20028;-79
2023/08/07 08:01:36;;;;;;;5.63;1.08;;;;;;;13.88;100.00;101003.66;5035256;28;20040;-79
2023/08/07 08:04:01;;;;;;;4.18;1.08;;;;;;;13.87;100.00;101009.97;5030495;28;20513;-79
2023/08/07 08:06:27;;;;;;;2.75;0.98;;;;;;;13.84;100.00;101011.09;5036193;28;20033;-79
2023/08/07 08:08:53;;;;;;;4.03;1.42;;;;;;;13.85;100.00;101009.28;5035032;28;20140;-79
2023/08/07 08:11:19;;;;;;;4.97;1.10;;;;;;;13.87;100.00;101010.78;5028566;28;20060;-79
2023/08/07 08:13:45;;;;;;;2.28;0.85;;;;;;;13.90;100.00;101001.69;4981678;28;20115;-79
2023/08/07 08:16:11;;;;;;;5.05;0.90;;;;;;;13.96;100.00;101005.56;5051712;28;20060;-79
2023/08/07 08:18:37;;;;;;;7.50;0.93;;;;;;;13.92;100.00;100999.69;5049074;28;20122;-79
2023/08/07 08:21:02;;;;;;;1.27;0.70;;;;;;;13.90;100.00;101001.69;5071139;28;20051;-79
2023/08/07 08:23:28;;;;;;;2.35;0.80;;;;;;;13.84;100.00;101013.75;5017542;28;20035;-79
2023/08/07 08:25:54;;;;;;;2.53;0.90;;;;;;;13.73;100.00;101008.66;5050642;28;20060;-80
2023/08/07 08:28:20;;;;;;;2.28;0.93;;;;;;;13.63;100.00;101008.75;5060229;28;20042;-80
2023/08/07 08:30:46;;;;;;;1.85;0.55;;;;;;;13.58;100.00;100997.72;5042802;28;20024;-79
2023/08/07 08:33:14;;;;;;;1.90;0.60;;;;;;;13.51;100.00;100989.53;5064789;28;20025;-79
2023/08/07 08:35:40;;;;;;;0.85;0.50;;;;;;;13.54;100.00;100993.72;5043595;28;20075;-79
2023/08/07 08:38:06;;;;;;;3.88;0.80;;;;;;;13.61;100.00;100992.97;5038708;28;20045;-80
2023/08/07 08:40:33;;;;;;;1.38;0.50;;;;;;;13.70;100.00;100993.03;5052389;28;20127;-80
2023/08/07 08:43:05;;;;;;;3.33;0.50;;;;;;;13.77;100.00;101000.25;5047771;28;20494;-79
2023/08/07 08:45:38;;;;;;;0.80;0.80;;;;;;;13.83;100.00;100995.31;5048611;28;20162;-79
2023/08/07 08:48:05;;;;;;;1.30;0.60;;;;;;;13.91;100.00;100992.72;5037138;28;20033;-79
2023/08/07 08:50:33;;;;;;;1.80;0.68;;;;;;;14.00;100.00;100983.84;5051278;28;20028;-80
2023/08/07 08:52:59;;;;;;;1.13;0.50;;;;;;;14.05;100.00;100983.38;5049732;28;20037;-80
2023/08/07 08:55:26;;;;;;;1.83;0.50;;;;;;;14.11;100.00;100980.09;5027759;28;20115;-80
2023/08/07 08:57:53;;;;;;;4.47;0.88;;;;;;;14.21;100.00;100992.44;5030336;28;20393;-80
2023/08/07 09:00:21;;;;;;;0.75;0.60;;;;;;;14.31;100.00;100985.22;5050883;28;20035;-80
2023/08/07 09:02:49;;;;;;;3.40;0.77;;;;;;;14.42;100.00;100985.94;5049405;28;20047;-80
2023/08/07 09:05:16;;;;;;;4.15;0.93;;;;;;;14.48;100.00;100978.19;5041385;28;21252;-80
2023/08/07 09:07:42;;;;;;;3.45;0.70;;;;;;;14.54;100.00;100978.56;5036292;28;20402;-80
2023/08/07 09:10:11;;;;;;;3.25;0.73;;;;;;;14.61;100.00;100971.59;5066983;28;20530;-80
2023/08/07 09:12:41;;;;;;;2.50;0.70;;;;;;;14.68;100.00;100971.81;5041628;28;20063;-80
2023/08/07 09:15:10;;;;;;;1.75;0.60;;;;;;;14.73;100.00;100965.00;5068836;28;20115;-80
2023/08/07 09:17:40;;;;;;;3.28;0.80;;;;;;;14.81;100.00;100966.09;5064901;28;20115;-80
2023/08/07 09:20:14;;;;;;;1.35;0.60;;;;;;;14.80;100.00;100965.25;5047196;28;20033;-80
2023/08/07 09:22:41;;;;;;;3.95;0.63;;;;;;;14.84;100.00;100961.25;5032033;28;20482;-80
2023/08/07 09:25:09;;;;;;;3.92;0.82;;;;;;;14.86;100.00;100963.75;5010866;28;20045;-80
2023/08/07 09:27:40;;;;;;;6.22;0.90;;;;;;;14.90;100.00;100967.78;5045148;28;20067;-80
2023/08/07 09:30:09;;;;;;;1.80;0.77;;;;;;;14.95;100.00;100969.97;5042663;28;20155;-80
2023/08/07 09:32:36;;;;;;;4.18;0.88;;;;;;;14.96;100.00;100961.81;5034181;28;20359;-80
2023/08/07 09:35:04;;;;;;;3.35;0.93;;;;;;;15.00;100.00;100963.16;5045732;28;20115;-80
2023/08/07 09:37:30;;;;;;;6.47;1.00;;;;;;;15.05;100.00;100962.66;5029030;28;20106;-80
2023/08/07 09:39:59;;;;;;;4.00;0.80;;;;;;;15.10;100.00;100951.53;5063763;28;20121;-80
2023/08/07 09:42:25;;;;;;;2.58;1.02;;;;;;;15.19;100.00;100942.59;5050365;28;20086;-80
2023/08/07 09:44:50;;;;;;;2.05;0.75;;;;;;;15.24;100.00;100950.91;5030557;28;20567;-80
2023/08/07 09:47:18;;;;;;;2.17;0.85;;;;;;;15.31;100.00;100940.44;5029566;28;20036;-80
2023/08/07 09:49:45;;;;;;;2.15;0.90;;;;;;;15.34;100.00;100941.94;5045223;28;20037;-81
2023/08/07 09:52:14;;;;;;;2.40;0.70;;;;;;;15.33;100.00;100941.13;5054672;28;20028;-81
2023/08/07 09:54:40;;;;;;;1.83;0.90;;;;;;;15.36;100.00;100932.81;4983152;28;20082;-80
2023/08/07 09:57:07;;;;;;;1.80;0.80;;;;;;;15.48;100.00;100935.16;5022548;28;20406;-80
2023/08/07 09:59:33;;;;;;;1.23;0.52;;;;;;;15.56;100.00;100931.66;5038461;28;20031;-80
2023/08/07 10:02:03;;;;;;;3.85;0.70;;;;;;;15.65;100.00;100936.00;5021455;28;20509;-81
2023/08/07 10:04:30;;;;;;;2.00;0.60;;;;;;;15.67;100.00;100930.50;5029424;28;20064;-80
2023/08/07 10:06:57;;;;;;;1.90;0.57;;;;;;;15.67;100.00;100931.31;5020318;28;20790;-80
2023/08/07 10:09:23;;;;;;;2.20;0.50;;;;;;;15.69;100.00;100929.31;5056728;28;20086;-81
2023/08/07 10:11:50;;;;;;;4.13;0.57;;;;;;;15.70;100.00;100923.00;5043335;28;20033;-81
2023/08/07 10:14:16;;;;;;;5.85;0.60;;;;;;;15.73;100.00;100919.19;5023253;28;20032;-81
2023/08/07 10:16:43;;;;;;;3.78;0.90;;;;;;;15.73;100.00;100914.69;5043632;28;20036;-81
2023/08/07 10:19:09;;;;;;;3.20;0.85;;;;;;;15.72;100.00;100917.50;5014243;28;20148;-80
2023/08/07 10:21:37;;;;;;;1.92;0.57;;;;;;;15.74;100.00;100913.69;5063518;28;20040;-79
2023/08/07 10:24:04;;;;;;;1.77;0.45;;;;;;;15.76;100.00;100916.19;5050303;28;20047;-80
2023/08/07 10:26:42;;;;;;;1.95;0.70;;;;;;;15.88;100.00;100911.31;5043023;28;20033;-80
2023/08/07 10:29:13;;;;;;;5.43;1.10;;;;;;;15.95;100.00;100903.50;5026282;28;20043;-80
2023/08/07 10:31:42;;;;;;;1.65;0.60;;;;;;;16.04;100.00;100904.38;5040157;28;20033;-81
2023/08/07 10:34:09;;;;;;;4.25;0.70;;;;;;;16.12;100.00;100899.84;5042966;28;20028;-80
2023/08/07 10:36:36;;;;;;;2.95;1.15;;;;;;;16.26;100.00;100900.13;5063541;28;20048;-80
2023/08/07 10:39:10;;;;;;;1.42;0.60;;;;;;;16.31;100.00;100907.63;5033585;28;20394;-80
2023/08/07 10:41:45;;;;;;;2.05;0.50;;;;;;;16.39;100.00;100899.59;5040733;28;20356;-80
2023/08/07 10:44:21;;;;;;;1.98;0.68;;;;;;;16.46;100.00;100894.41;5033171;28;20555;-80
2023/08/07 10:46:52;;;;;;;3.70;0.60;;;;;;;16.46;100.00;100902.41;5049071;28;20037;-80
2023/08/07 10:49:38;;;;;;;4.55;1.10;;;;;;;16.56;100.00;100888.88;5010782;28;20029;-80
2023/08/07 10:52:15;;;;;;;0.88;0.50;;;;;;;16.61;100.00;100883.84;5049975;28;20042;-81
2023/08/07 10:54:45;;;;;;;1.25;0.57;;;;;;;16.64;100.00;100891.50;5047177;28;20033;-80
2023/08/07 10:57:13;;;;;;;1.13;0.50;;;;;;;16.61;100.00;100889.19;5051450;28;20047;-80
2023/08/07 11:00:07;;;;;;;0.68;0.40;;;;;;;16.65;100.00;100884.31;5071511;28;20115;-80
2023/08/07 11:02:39;;;;;;;1.35;0.50;;;;;;;16.72;100.00;100888.78;5055546;28;20090;-80
2023/08/07 11:05:06;;;;;;;1.02;0.57;;;;;;;16.81;100.00;100884.25;5050553;28;20059;-80
2023/08/07 11:07:32;;;;;;;2.50;0.57;;;;;;;16.93;100.00;100882.00;5031294;28;20024;-81
2023/08/07 11:09:59;;;;;;;1.85;0.50;;;;;;;17.05;100.00;100881.59;5071192;28;20032;-80
2023/08/07 11:12:26;;;;;;;1.90;0.50;;;;;;;17.19;100.00;100877.38;5052349;28;20128;-81
2023/08/07 11:14:56;;;;;;;3.08;0.52;;;;;;;17.40;100.00;100873.22;5068625;28;20021;-81
2023/08/07 11:17:26;;;;;;;3.75;0.63;;;;;;;17.58;100.00;100870.22;5049990;28;20048;-80